createdAt,value
2016-11-08T12:30:13.836Z,1405
2016-11-08T12:31:13.762Z,1380
2016-11-08T12:32:13.733Z,1540
2016-11-08T12:33:13.745Z,1520
2016-11-08T12:34:14.004Z,1360
2016-11-08T12:35:13.674Z,1380
2016-11-08T12:36:13.666Z,2835
2016-11-08T12:37:14.088Z,2720
2016-11-08T12:38:13.620Z,1220
2016-11-08T12:39:13.538Z,1825
2016-11-08T12:40:13.544Z,2735
2016-11-08T12:41:13.510Z,2630
2016-11-08T12:42:13.508Z,2400
2016-11-08T12:43:13.481Z,2305
2016-11-08T12:44:13.437Z,2345
2016-11-08T12:45:13.433Z,2335
2016-11-08T12:46:13.417Z,1815
2016-11-08T12:47:13.364Z,1960
2016-11-08T12:48:13.334Z,2025
2016-11-08T12:49:13.631Z,2040
2016-11-08T12:50:13.290Z,1050
2016-11-08T12:51:13.263Z,1910
2016-11-08T12:52:13.416Z,1650
2016-11-08T12:53:13.242Z,1875
2016-11-08T12:54:13.210Z,1730
2016-11-08T12:55:13.162Z,1365
2016-11-08T12:56:13.442Z,1845
2016-11-08T12:57:13.127Z,1695
2016-11-08T12:58:13.102Z,935
2016-11-08T12:59:13.052Z,900
2016-11-08T13:00:13.061Z,935
2016-11-08T13:01:13.039Z,800
2016-11-08T13:02:12.977Z,870
2016-11-08T13:03:13.246Z,1035
2016-11-08T13:04:12.952Z,960
2016-11-08T13:05:12.945Z,860
2016-11-08T13:06:12.887Z,915
2016-11-08T13:07:12.871Z,845
2016-11-08T13:08:12.837Z,690
2016-11-08T13:09:12.837Z,760
2016-11-08T13:10:13.104Z,590
2016-11-08T13:11:12.767Z,690
2016-11-08T13:12:12.761Z,965
2016-11-08T13:13:12.761Z,905
2016-11-08T13:14:12.719Z,675
2016-11-08T13:15:12.698Z,785
2016-11-08T13:16:12.679Z,860
2016-11-08T13:17:12.601Z,1420
2016-11-08T13:18:12.645Z,1520
2016-11-08T13:19:12.591Z,670
2016-11-08T13:20:12.524Z,570
2016-11-08T13:21:12.524Z,570
2016-11-08T13:22:12.495Z,580
2016-11-08T13:23:12.481Z,670
2016-11-08T13:24:12.462Z,700
2016-11-08T13:25:12.400Z,780
2016-11-08T13:26:12.398Z,785
2016-11-08T13:27:12.379Z,1210
2016-11-08T13:28:12.331Z,1455
2016-11-08T13:29:12.307Z,1640
2016-11-08T13:30:12.277Z,1800
2016-11-08T13:31:12.299Z,1225
2016-11-08T13:32:12.244Z,715
2016-11-08T13:33:12.435Z,715
2016-11-08T13:34:12.176Z,800
2016-11-08T13:35:12.175Z,765
2016-11-08T13:36:12.139Z,655
2016-11-08T13:37:12.136Z,740
2016-11-08T13:38:12.072Z,675
2016-11-08T13:39:12.054Z,605
2016-11-08T13:40:12.043Z,810
2016-11-08T13:41:12.048Z,1065
2016-11-08T13:42:12.006Z,1120
2016-11-08T13:43:11.971Z,875
2016-11-08T13:44:11.988Z,825
2016-11-08T13:45:11.935Z,695
2016-11-08T13:46:11.909Z,730
2016-11-08T13:47:11.867Z,845
2016-11-08T13:48:11.845Z,850
2016-11-08T13:49:11.820Z,665
2016-11-08T13:50:11.787Z,770
2016-11-08T13:51:11.755Z,910
2016-11-08T13:52:11.773Z,1045
2016-11-08T13:53:11.756Z,770
2016-11-08T13:54:11.703Z,660
2016-11-08T13:55:11.692Z,720
2016-11-08T13:56:11.683Z,625
2016-11-08T13:57:11.646Z,525
2016-11-08T13:58:11.582Z,645
2016-11-08T13:59:11.571Z,680
2016-11-08T14:00:11.573Z,720
2016-11-08T14:01:11.506Z,705
2016-11-08T14:02:11.478Z,665
2016-11-08T14:03:11.491Z,645
2016-11-08T14:04:11.458Z,700
2016-11-08T14:05:11.425Z,795
2016-11-08T14:06:11.412Z,810
2016-11-08T14:07:11.386Z,770
2016-11-08T14:08:11.349Z,750
2016-11-08T14:09:11.318Z,645
2016-11-08T14:10:11.313Z,535
2016-11-08T14:11:11.603Z,545
2016-11-08T14:12:11.251Z,560
2016-11-08T14:13:11.224Z,465
2016-11-08T14:14:11.186Z,395
2016-11-08T14:15:11.176Z,405
2016-11-08T14:16:11.148Z,455
2016-11-08T14:17:11.098Z,445
2016-11-08T14:18:11.156Z,415
2016-11-08T14:19:11.062Z,415
2016-11-08T14:20:11.075Z,405
2016-11-08T14:21:11.374Z,385
2016-11-08T14:22:11.005Z,360
2016-11-08T14:23:10.969Z,310
2016-11-08T14:24:10.953Z,325
2016-11-08T14:25:10.958Z,310
2016-11-08T14:26:10.911Z,310
2016-11-08T14:27:10.899Z,360
2016-11-08T14:28:10.869Z,310
2016-11-08T14:29:10.827Z,310
2016-11-08T14:30:10.780Z,300
2016-11-08T14:31:10.770Z,295
2016-11-08T14:32:10.751Z,300
2016-11-08T14:33:10.729Z,310
2016-11-08T14:34:10.691Z,305
2016-11-08T14:35:10.640Z,300
2016-11-08T14:36:10.620Z,310
2016-11-08T14:37:10.615Z,335
2016-11-08T14:38:10.565Z,400
2016-11-08T14:39:10.563Z,510
2016-11-08T14:40:10.535Z,525
2016-11-08T14:41:10.517Z,460
2016-11-08T14:42:10.504Z,350
2016-11-08T14:43:10.463Z,295
2016-11-08T14:44:10.440Z,285
2016-11-08T14:45:10.417Z,275
2016-11-08T14:46:10.423Z,335
2016-11-08T14:47:10.404Z,355
2016-11-08T14:48:10.345Z,315
2016-11-08T14:49:10.679Z,340
2016-11-08T14:50:10.310Z,290
2016-11-08T14:51:10.266Z,305
2016-11-08T14:52:10.254Z,340
2016-11-08T14:53:10.235Z,330
2016-11-08T14:54:10.255Z,295
2016-11-08T14:55:10.156Z,275
2016-11-08T14:56:10.138Z,290
2016-11-08T14:57:10.094Z,300
2016-11-08T14:58:10.082Z,250
2016-11-08T14:59:10.044Z,230
2016-11-08T15:00:10.074Z,240
2016-11-08T15:01:10.015Z,235
2016-11-08T15:02:10.202Z,215
2016-11-08T15:03:09.951Z,215
2016-11-08T15:04:09.959Z,230
2016-11-08T15:05:09.894Z,225
2016-11-08T15:06:09.888Z,215
2016-11-08T15:07:09.865Z,205
2016-11-08T15:08:09.832Z,205
2016-11-08T15:09:09.798Z,225
2016-11-08T15:10:09.799Z,255
2016-11-08T15:11:09.774Z,230
2016-11-08T15:12:10.268Z,185
2016-11-08T15:13:09.751Z,175
2016-11-08T15:14:09.672Z,145
2016-11-08T15:15:09.666Z,145
2016-11-08T15:16:09.780Z,145
2016-11-08T15:17:09.593Z,140
2016-11-08T15:18:09.573Z,130
2016-11-08T15:19:09.535Z,125
2016-11-08T15:20:09.540Z,120
2016-11-08T15:21:09.499Z,120
2016-11-08T15:22:09.475Z,120
2016-11-08T15:23:09.435Z,115
2016-11-08T15:24:09.428Z,110
2016-11-08T15:25:09.772Z,105
2016-11-08T15:26:09.345Z,100
2016-11-08T15:27:09.329Z,105
2016-11-08T15:28:09.344Z,95
2016-11-08T15:29:09.303Z,90
2016-11-08T15:30:09.308Z,90
2016-11-08T15:31:09.229Z,85
2016-11-08T15:32:09.188Z,80
2016-11-08T15:33:09.210Z,75
2016-11-08T15:34:09.146Z,75
2016-11-08T15:35:09.130Z,70
2016-11-08T15:36:09.127Z,70
2016-11-08T15:37:09.128Z,65
2016-11-08T15:38:09.032Z,60
2016-11-08T15:39:09.036Z,60
2016-11-08T15:40:08.991Z,55
2016-11-08T15:41:08.982Z,55
2016-11-08T15:42:08.951Z,45
2016-11-08T15:43:09.350Z,40
2016-11-08T15:44:09.211Z,40
2016-11-08T15:45:08.888Z,35
2016-11-08T15:46:08.833Z,35
2016-11-08T15:47:08.829Z,30
2016-11-08T15:48:08.785Z,30
2016-11-08T15:49:08.791Z,25
2016-11-08T15:50:08.731Z,25
2016-11-08T15:51:08.746Z,20
2016-11-08T15:52:08.662Z,20
2016-11-08T15:53:08.684Z,15
2016-11-08T15:54:08.628Z,15
2016-11-08T15:55:08.599Z,10
2016-11-08T15:56:08.578Z,10
2016-11-08T15:57:08.531Z,10
2016-11-08T15:58:08.518Z,5
2016-11-08T15:59:08.494Z,5
2016-11-08T16:00:08.458Z,5
2016-11-08T16:01:08.446Z,5
2016-11-08T16:02:08.717Z,5
2016-11-08T16:03:08.427Z,0
2016-11-08T16:04:08.381Z,0
2016-11-08T16:05:08.346Z,0
2016-11-08T16:06:08.279Z,0
2016-11-08T16:07:08.265Z,0
2016-11-08T16:08:08.277Z,0
2016-11-08T16:09:08.218Z,0
2016-11-08T16:10:08.216Z,0
2016-11-08T16:11:08.167Z,0
2016-11-08T16:12:08.144Z,0
2016-11-08T16:13:08.167Z,0
2016-11-08T16:14:08.079Z,0
2016-11-08T16:15:08.093Z,0
2016-11-08T16:16:08.253Z,0
2016-11-08T16:17:08.012Z,0
2016-11-08T16:18:07.999Z,0
2016-11-08T16:19:07.979Z,0
2016-11-08T16:20:07.938Z,0
2016-11-08T16:21:07.885Z,0
2016-11-08T16:22:07.851Z,0
2016-11-08T16:23:07.851Z,0
2016-11-08T16:24:08.149Z,0
2016-11-08T16:25:07.808Z,0
2016-11-08T16:26:07.765Z,0
2016-11-08T16:27:07.738Z,0
2016-11-08T16:28:07.735Z,0
2016-11-08T16:29:07.713Z,0
2016-11-08T16:30:07.661Z,0
2016-11-08T16:31:07.721Z,0
2016-11-08T16:32:07.619Z,0
2016-11-08T16:33:07.601Z,0
2016-11-08T16:34:07.558Z,0
2016-11-08T16:35:07.567Z,0
2016-11-08T16:36:07.526Z,0
2016-11-08T16:37:07.490Z,0
2016-11-08T16:38:07.795Z,0
2016-11-08T16:39:07.415Z,0
2016-11-08T16:40:07.382Z,0
2016-11-08T16:41:07.369Z,0
2016-11-08T16:42:07.364Z,0
2016-11-08T16:43:07.322Z,0
2016-11-08T16:44:07.292Z,0
2016-11-08T16:45:07.279Z,0
2016-11-08T16:46:07.281Z,0
2016-11-08T16:47:07.228Z,0
2016-11-08T16:48:07.181Z,0
2016-11-08T16:49:07.144Z,0
2016-11-08T16:50:07.115Z,0
2016-11-08T16:51:07.092Z,0
2016-11-08T16:52:07.094Z,0
2016-11-08T16:53:07.075Z,0
2016-11-08T16:54:07.005Z,0
2016-11-08T16:55:07.020Z,0
2016-11-08T16:56:06.971Z,0
2016-11-08T16:57:06.946Z,0
2016-11-08T16:58:06.932Z,0
2016-11-08T16:59:06.891Z,0
2016-11-08T17:00:06.881Z,0
2016-11-08T17:01:06.889Z,0
2016-11-08T17:02:06.816Z,0
2016-11-08T17:03:06.810Z,0
2016-11-08T17:04:06.788Z,0
2016-11-08T17:05:06.711Z,0
2016-11-08T17:06:06.721Z,0
2016-11-08T17:07:06.690Z,0
2016-11-08T17:08:06.660Z,0
2016-11-08T17:09:06.674Z,0
2016-11-08T17:10:06.610Z,0
2016-11-08T17:11:06.576Z,0
2016-11-08T17:12:06.563Z,0
2016-11-08T17:13:06.538Z,0
2016-11-08T17:14:06.518Z,0
2016-11-08T17:15:06.475Z,0
2016-11-08T17:16:06.440Z,0
2016-11-08T17:17:06.463Z,0
2016-11-08T17:18:06.386Z,0
2016-11-08T17:19:06.674Z,0
2016-11-08T17:20:06.348Z,0
2016-11-08T17:21:06.342Z,0
2016-11-08T17:22:06.289Z,0
2016-11-08T17:23:06.299Z,0
2016-11-08T17:24:06.253Z,0
2016-11-08T17:25:06.422Z,0
2016-11-08T17:26:06.185Z,0
2016-11-08T17:27:06.478Z,0
2016-11-08T17:28:06.130Z,0
2016-11-08T17:29:06.116Z,0
2016-11-08T17:30:06.084Z,0
2016-11-08T17:31:06.057Z,0
2016-11-08T17:32:06.017Z,0
2016-11-08T17:33:06.019Z,0
2016-11-08T17:34:06.013Z,0
2016-11-08T17:35:05.952Z,0
2016-11-08T17:36:05.922Z,0
2016-11-08T17:37:05.920Z,0
2016-11-08T17:38:05.904Z,0
2016-11-08T17:39:05.853Z,0
2016-11-08T17:40:05.843Z,0
2016-11-08T17:41:05.824Z,0
2016-11-08T17:42:05.794Z,0
2016-11-08T17:43:05.755Z,0
2016-11-08T17:44:06.069Z,0
2016-11-08T17:45:05.745Z,0
2016-11-08T17:46:05.681Z,0
2016-11-08T17:47:05.657Z,0
2016-11-08T17:48:05.638Z,0
2016-11-08T17:49:05.785Z,0
2016-11-08T17:50:05.789Z,0
2016-11-08T17:51:05.551Z,0
2016-11-08T17:52:05.497Z,0
2016-11-08T17:53:06.138Z,0
2016-11-08T17:54:05.451Z,0
2016-11-08T17:55:05.429Z,0
2016-11-08T17:56:05.457Z,0
2016-11-08T17:57:05.684Z,0
2016-11-08T17:58:05.373Z,0
2016-11-08T17:59:05.345Z,0
2016-11-08T18:00:05.300Z,0
2016-11-08T18:01:05.289Z,0
2016-11-08T18:02:05.256Z,0
2016-11-08T18:03:05.232Z,0
2016-11-08T18:04:05.187Z,0
2016-11-08T18:05:05.191Z,0
2016-11-08T18:06:05.175Z,0
2016-11-08T18:07:05.139Z,0
2016-11-08T18:08:05.174Z,0
2016-11-08T18:09:05.085Z,0
2016-11-08T18:10:05.042Z,0
2016-11-08T18:11:05.031Z,0
2016-11-08T18:12:05.023Z,0
2016-11-08T18:13:05.108Z,0
2016-11-08T18:14:04.950Z,0
2016-11-08T18:15:05.425Z,0
2016-11-08T18:16:05.086Z,0
2016-11-08T18:17:05.068Z,0
2016-11-08T18:18:04.843Z,0
2016-11-08T18:19:04.883Z,0
2016-11-08T18:20:04.808Z,0
2016-11-08T18:21:04.769Z,0
2016-11-08T18:22:04.745Z,0
2016-11-08T18:23:04.724Z,0
2016-11-08T18:24:04.694Z,0
2016-11-08T18:25:04.688Z,0
2016-11-08T18:26:04.658Z,0
2016-11-08T18:27:04.655Z,0
2016-11-08T18:28:04.612Z,0
2016-11-08T18:29:04.569Z,0
2016-11-08T18:30:04.549Z,0
2016-11-08T18:31:04.523Z,0
2016-11-08T18:32:04.503Z,0
2016-11-08T18:33:04.491Z,0
2016-11-08T18:34:04.515Z,0
2016-11-08T18:35:04.427Z,0
2016-11-08T18:36:04.407Z,0
2016-11-08T18:37:04.378Z,0
2016-11-08T18:38:04.350Z,0
2016-11-08T18:39:04.320Z,0
2016-11-08T18:40:04.319Z,0
2016-11-08T18:41:04.470Z,0
2016-11-08T18:42:04.269Z,0
2016-11-08T18:43:04.435Z,0
2016-11-08T18:44:04.460Z,0
2016-11-08T18:45:04.198Z,0
2016-11-08T18:46:04.156Z,0
2016-11-08T18:47:04.143Z,0
2016-11-08T18:48:04.140Z,0
2016-11-08T18:49:04.099Z,0
2016-11-08T18:50:04.065Z,0
2016-11-08T18:51:04.051Z,0
2016-11-08T18:52:03.994Z,0
2016-11-08T18:53:03.968Z,0
2016-11-08T18:54:03.951Z,0
2016-11-08T18:55:04.073Z,0
2016-11-08T18:56:03.899Z,0
2016-11-08T18:57:03.874Z,0
2016-11-08T18:58:03.882Z,0
2016-11-08T18:59:03.849Z,0
2016-11-08T19:00:04.110Z,0
2016-11-08T19:01:03.808Z,0
2016-11-08T19:02:03.773Z,0
2016-11-08T19:03:04.264Z,0
2016-11-08T19:04:03.695Z,0
2016-11-08T19:05:03.703Z,0
2016-11-08T19:06:03.658Z,0
2016-11-08T19:07:03.675Z,0
2016-11-08T19:08:03.606Z,0
2016-11-08T19:09:03.762Z,0
2016-11-08T19:10:03.560Z,0
2016-11-08T19:11:03.523Z,0
2016-11-08T19:12:03.508Z,0
2016-11-08T19:13:03.489Z,0
2016-11-08T19:14:03.740Z,0
2016-11-08T19:15:03.420Z,0
2016-11-08T19:16:03.421Z,0
2016-11-08T19:17:03.407Z,0
2016-11-08T19:18:03.335Z,0
2016-11-08T19:19:03.318Z,0
2016-11-08T19:20:03.286Z,0
2016-11-08T19:21:03.250Z,0
2016-11-08T19:22:03.267Z,0
2016-11-08T19:23:03.237Z,0
2016-11-08T19:24:03.166Z,0
2016-11-08T19:25:03.160Z,0
2016-11-08T19:26:03.163Z,0
2016-11-08T19:27:03.113Z,0
2016-11-08T19:28:03.099Z,0
2016-11-08T19:29:03.079Z,0
2016-11-08T19:30:03.059Z,0
2016-11-08T19:31:03.339Z,0
2016-11-08T19:32:03.015Z,0
2016-11-08T19:33:02.985Z,0
2016-11-08T19:34:02.932Z,0
2016-11-08T19:35:03.146Z,0
2016-11-08T19:36:03.111Z,0
2016-11-08T19:37:02.859Z,0
2016-11-08T19:38:02.851Z,0
2016-11-08T19:39:02.849Z,0
2016-11-08T19:40:02.801Z,0
2016-11-08T19:41:03.055Z,0
2016-11-08T19:42:02.760Z,0
2016-11-08T19:43:02.717Z,0
2016-11-08T19:44:02.705Z,0
2016-11-08T19:45:02.663Z,0
2016-11-08T19:46:02.696Z,0
2016-11-08T19:47:02.584Z,0
2016-11-08T19:48:02.574Z,0
2016-11-08T19:49:02.534Z,0
2016-11-08T19:50:02.532Z,0
2016-11-08T19:51:02.506Z,0
2016-11-08T19:52:02.505Z,0
2016-11-08T19:53:02.446Z,0
2016-11-08T19:54:02.419Z,0
2016-11-08T19:55:02.405Z,0
2016-11-08T19:56:02.375Z,0
2016-11-08T19:57:02.393Z,0
2016-11-08T19:58:02.324Z,0
2016-11-08T19:59:02.305Z,0
2016-11-08T20:00:02.292Z,0
2016-11-08T20:01:02.248Z,0
2016-11-08T20:02:02.246Z,0
2016-11-08T20:03:02.213Z,0
2016-11-08T20:04:02.180Z,0
2016-11-08T20:05:02.141Z,0
2016-11-08T20:06:02.117Z,0
2016-11-08T20:07:02.124Z,0
2016-11-08T20:08:02.107Z,0
2016-11-08T20:09:02.057Z,0
2016-11-08T20:10:02.037Z,0
2016-11-08T20:11:01.994Z,0
2016-11-08T20:12:01.991Z,0
2016-11-08T20:13:01.986Z,0
2016-11-08T20:14:01.949Z,0
2016-11-08T20:15:01.906Z,0
2016-11-08T20:16:01.858Z,0
2016-11-08T20:17:01.893Z,0
2016-11-08T20:18:01.833Z,0
2016-11-08T20:19:01.800Z,0
2016-11-08T20:20:01.820Z,0
2016-11-08T20:21:01.760Z,0
2016-11-08T20:22:01.806Z,0
2016-11-08T20:23:01.710Z,0
2016-11-08T20:24:01.998Z,0
2016-11-08T20:25:01.960Z,0
2016-11-08T20:26:01.627Z,0
2016-11-08T20:27:01.618Z,0
2016-11-08T20:28:01.587Z,0
2016-11-08T20:29:01.578Z,0
2016-11-08T20:30:01.511Z,0
2016-11-08T20:31:01.491Z,0
2016-11-08T20:32:01.524Z,0
2016-11-08T20:33:01.464Z,0
2016-11-08T20:34:01.422Z,0
2016-11-08T20:35:01.442Z,0
2016-11-08T20:36:01.389Z,0
2016-11-08T20:37:01.367Z,0
2016-11-08T20:38:01.338Z,0
2016-11-08T20:39:01.328Z,0
2016-11-08T20:40:01.280Z,0
2016-11-08T20:41:01.282Z,0
2016-11-08T20:42:01.240Z,0
2016-11-08T20:43:01.237Z,0
2016-11-08T20:44:01.236Z,0
2016-11-08T20:45:01.151Z,0
2016-11-08T20:46:01.109Z,0
2016-11-08T20:47:01.117Z,0
2016-11-08T20:48:01.102Z,0
2016-11-08T20:49:01.052Z,0
2016-11-08T20:50:01.027Z,0
2016-11-08T20:51:01.036Z,0
2016-11-08T20:52:00.997Z,0
2016-11-08T20:53:01.011Z,0
2016-11-08T20:54:00.955Z,0
2016-11-08T20:55:00.917Z,0
2016-11-08T20:56:00.904Z,0
2016-11-08T20:57:00.891Z,0
2016-11-08T20:58:00.868Z,0
2016-11-08T20:59:00.818Z,0
2016-11-08T21:00:00.804Z,0
2016-11-08T21:01:00.764Z,0
2016-11-08T21:02:00.747Z,0
2016-11-08T21:03:00.728Z,0
2016-11-08T21:04:00.681Z,0
2016-11-08T21:05:00.680Z,0
2016-11-08T21:06:00.655Z,0
2016-11-08T21:07:00.623Z,0
2016-11-08T21:08:00.562Z,0
2016-11-08T21:09:00.576Z,0
2016-11-08T21:10:00.510Z,0
2016-11-08T21:11:00.510Z,0
2016-11-08T21:12:00.485Z,0
2016-11-08T21:13:00.451Z,0
2016-11-08T21:14:00.408Z,0
2016-11-08T21:15:00.412Z,0
2016-11-08T21:16:00.697Z,0
2016-11-08T21:17:00.363Z,0
2016-11-08T21:18:00.506Z,0
2016-11-08T21:19:00.286Z,0
2016-11-08T21:20:00.293Z,0
2016-11-08T21:21:00.233Z,0
2016-11-08T21:22:00.276Z,0
2016-11-08T21:23:00.198Z,0
2016-11-08T21:24:00.485Z,0
2016-11-08T21:25:00.150Z,0
2016-11-08T21:26:00.452Z,0
2016-11-08T21:27:00.101Z,0
2016-11-08T21:28:00.130Z,0
2016-11-08T21:29:00.032Z,0
2016-11-08T21:30:00.019Z,0
2016-11-08T21:30:59.996Z,0
2016-11-08T21:31:59.951Z,0
2016-11-08T21:32:59.926Z,0
2016-11-08T21:33:59.922Z,0
2016-11-08T21:34:59.873Z,0
2016-11-08T21:35:59.848Z,0
2016-11-08T21:36:59.851Z,0
2016-11-08T21:38:00.108Z,0
2016-11-08T21:38:59.805Z,0
2016-11-08T21:39:59.759Z,0
2016-11-08T21:40:59.741Z,0
2016-11-08T21:41:59.752Z,0
2016-11-08T21:42:59.705Z,0
2016-11-08T21:43:59.652Z,0
2016-11-08T21:44:59.649Z,0
2016-11-08T21:45:59.897Z,0
2016-11-08T21:46:59.580Z,0
2016-11-08T21:47:59.605Z,0
2016-11-08T21:48:59.541Z,0
2016-11-08T21:49:59.516Z,0
2016-11-08T21:50:59.511Z,0
2016-11-08T21:51:59.490Z,0
2016-11-08T21:52:59.482Z,0
2016-11-08T21:53:59.422Z,0
2016-11-08T21:54:59.398Z,0
2016-11-08T21:55:59.346Z,0
2016-11-08T21:56:59.334Z,0
2016-11-08T21:57:59.308Z,0
2016-11-08T21:58:59.290Z,0
2016-11-08T21:59:59.280Z,0
2016-11-08T22:00:59.213Z,0
2016-11-08T22:01:59.206Z,0
2016-11-08T22:02:59.178Z,0
2016-11-08T22:03:59.215Z,0
2016-11-08T22:04:59.156Z,0
2016-11-08T22:05:59.470Z,0
2016-11-08T22:06:59.098Z,0
2016-11-08T22:07:59.075Z,0
2016-11-08T22:08:59.096Z,0
2016-11-08T22:09:58.995Z,0
2016-11-08T22:10:59.010Z,0
2016-11-08T22:11:58.951Z,0
2016-11-08T22:12:58.957Z,0
2016-11-08T22:13:58.889Z,0
2016-11-08T22:14:58.883Z,0
2016-11-08T22:15:58.889Z,0
2016-11-08T22:16:58.832Z,0
2016-11-08T22:17:58.806Z,0
2016-11-08T22:18:58.771Z,0
2016-11-08T22:19:58.756Z,0
2016-11-08T22:20:59.024Z,0
2016-11-08T22:21:58.698Z,0
2016-11-08T22:22:58.692Z,0
2016-11-08T22:23:58.647Z,0
2016-11-08T22:24:58.644Z,0
2016-11-08T22:25:58.592Z,0
2016-11-08T22:26:58.565Z,0
2016-11-08T22:27:58.538Z,0
2016-11-08T22:28:58.572Z,0
2016-11-08T22:29:58.516Z,0
2016-11-08T22:30:58.496Z,0
2016-11-08T22:31:58.436Z,0
2016-11-08T22:32:58.409Z,0
2016-11-08T22:33:58.425Z,0
2016-11-08T22:34:58.359Z,0
2016-11-08T22:35:58.363Z,0
2016-11-08T22:36:58.350Z,0
2016-11-08T22:37:58.286Z,0
2016-11-08T22:38:58.262Z,0
2016-11-08T22:39:58.284Z,0
2016-11-08T22:40:58.231Z,0
2016-11-08T22:41:58.197Z,0
2016-11-08T22:42:58.201Z,0
2016-11-08T22:43:58.166Z,0
2016-11-08T22:44:58.158Z,0
2016-11-08T22:45:58.281Z,0
2016-11-08T22:46:58.072Z,0
2016-11-08T22:47:58.024Z,0
2016-11-08T22:48:58.007Z,0
2016-11-08T22:49:57.994Z,0
2016-11-08T22:50:57.982Z,0
2016-11-08T22:51:57.956Z,0
2016-11-08T22:52:57.905Z,0
2016-11-08T22:53:57.874Z,0
2016-11-08T22:54:57.855Z,0
2016-11-08T22:55:57.808Z,0
2016-11-08T22:56:57.798Z,0
2016-11-08T22:57:57.785Z,0
2016-11-08T22:58:57.756Z,0
2016-11-08T22:59:57.747Z,0
2016-11-08T23:00:57.707Z,0
2016-11-08T23:01:57.665Z,0
2016-11-08T23:02:57.678Z,0
2016-11-08T23:03:57.630Z,0
2016-11-08T23:04:57.602Z,0
2016-11-08T23:05:57.583Z,0
2016-11-08T23:06:57.551Z,0
2016-11-08T23:07:57.511Z,0
2016-11-08T23:08:57.483Z,0
2016-11-08T23:09:57.467Z,0
2016-11-08T23:10:57.428Z,0
2016-11-08T23:11:57.437Z,0
2016-11-08T23:12:57.430Z,0
2016-11-08T23:13:57.403Z,0
2016-11-08T23:14:57.339Z,0
2016-11-08T23:15:57.334Z,0
2016-11-08T23:16:57.296Z,0
2016-11-08T23:17:57.277Z,0
2016-11-08T23:18:57.244Z,0
2016-11-08T23:19:57.190Z,0
2016-11-08T23:20:57.181Z,0
2016-11-08T23:21:57.185Z,0
2016-11-08T23:22:57.141Z,0
2016-11-08T23:23:57.108Z,0
2016-11-08T23:24:57.096Z,0
2016-11-08T23:25:57.093Z,0
2016-11-08T23:26:57.061Z,0
2016-11-08T23:27:57.010Z,0
2016-11-08T23:28:57.000Z,0
2016-11-08T23:29:56.959Z,0
2016-11-08T23:30:57.281Z,0
2016-11-08T23:31:56.907Z,0
2016-11-08T23:32:56.883Z,0
2016-11-08T23:33:56.860Z,0
2016-11-08T23:34:56.821Z,0
2016-11-08T23:35:56.836Z,0
2016-11-08T23:36:56.806Z,0
2016-11-08T23:37:57.069Z,0
2016-11-08T23:38:56.742Z,0
2016-11-08T23:39:56.735Z,0
2016-11-08T23:40:56.683Z,0
2016-11-08T23:41:56.663Z,0
2016-11-08T23:42:56.642Z,0
2016-11-08T23:43:56.591Z,0
2016-11-08T23:44:56.565Z,0
2016-11-08T23:45:56.581Z,0
2016-11-08T23:46:56.518Z,0
2016-11-08T23:47:56.519Z,0
2016-11-08T23:48:56.450Z,0
2016-11-08T23:49:56.440Z,0
2016-11-08T23:50:56.416Z,0
2016-11-08T23:51:56.413Z,0
2016-11-08T23:52:56.360Z,0
2016-11-08T23:53:56.365Z,0
2016-11-08T23:54:56.352Z,0
2016-11-08T23:55:56.296Z,0
2016-11-08T23:56:56.295Z,0
2016-11-08T23:57:56.239Z,0
2016-11-08T23:58:56.196Z,0
2016-11-08T23:59:56.224Z,0
